createdAt,value
2023-04-03T00:00:47.981Z,1.53
2023-04-03T00:03:35.798Z,1.23
2023-04-03T00:06:24.215Z,1.30
2023-04-03T00:09:11.201Z,1.50
2023-04-03T00:11:58.189Z,1.43
2023-04-03T00:14:45.252Z,1.30
2023-04-03T00:17:32.286Z,1.20
2023-04-03T00:20:19.304Z,1.50
2023-04-03T00:23:06.423Z,1.60
2023-04-03T00:25:53.549Z,1.50
2023-04-03T00:28:40.652Z,1.50
2023-04-03T00:31:27.786Z,1.40
2023-04-03T00:34:14.814Z,1.73
2023-04-03T00:37:01.810Z,1.73
2023-04-03T00:39:48.936Z,1.40
2023-04-03T00:42:37.863Z,1.43
2023-04-03T00:45:52.349Z,1.40
2023-04-03T00:48:45.836Z,1.27
2023-04-03T00:51:33.217Z,1.50
2023-04-03T00:54:20.538Z,1.57
2023-04-03T00:57:09.331Z,1.77
2023-04-03T01:00:01.128Z,1.33
2023-04-03T01:02:48.411Z,1.60
2023-04-03T01:05:36.474Z,1.50
2023-04-03T01:08:23.466Z,1.70
2023-04-03T01:11:10.467Z,1.77
2023-04-03T01:13:57.718Z,1.60
2023-04-03T01:16:55.638Z,1.60
2023-04-03T01:19:52.902Z,1.57
2023-04-03T01:23:07.423Z,1.60
2023-04-03T01:25:57.101Z,1.70
2023-04-03T01:28:44.296Z,1.57
2023-04-03T01:31:49.830Z,1.87
2023-04-03T01:34:37.083Z,1.70
2023-04-03T01:37:24.121Z,1.60
2023-04-03T01:40:11.550Z,1.50
2023-04-03T01:42:59.238Z,1.63
2023-04-03T01:45:47.499Z,1.60
2023-04-03T01:48:34.863Z,1.37
2023-04-03T01:51:21.995Z,1.53
2023-04-03T01:54:09.101Z,1.70
2023-04-03T01:56:56.076Z,1.50
2023-04-03T01:59:43.265Z,1.50
2023-04-03T02:02:30.593Z,1.40
2023-04-03T02:05:17.887Z,1.43
2023-04-03T02:08:05.157Z,1.53
2023-04-03T02:10:52.619Z,1.77
2023-04-03T02:13:39.574Z,1.90
2023-04-03T02:16:26.704Z,1.77
2023-04-03T02:19:13.848Z,1.60
2023-04-03T02:22:00.826Z,1.70
2023-04-03T02:24:48.066Z,1.80
2023-04-03T02:27:36.177Z,1.70
2023-04-03T02:30:23.181Z,1.80
2023-04-03T02:33:10.412Z,1.90
2023-04-03T02:35:59.491Z,1.60
2023-04-03T02:38:46.712Z,1.60
2023-04-03T02:41:36.804Z,1.40
2023-04-03T02:44:28.350Z,1.70
2023-04-03T02:47:15.302Z,1.50
2023-04-03T02:50:02.323Z,1.90
2023-04-03T02:52:49.636Z,1.80
2023-04-03T02:55:36.952Z,1.70
2023-04-03T02:58:24.098Z,1.90
2023-04-03T03:01:13.773Z,1.90
2023-04-03T03:04:01.550Z,1.80
2023-04-03T03:06:48.907Z,1.60
2023-04-03T03:09:36.023Z,1.53
2023-04-03T03:12:24.255Z,1.93
2023-04-03T03:15:11.863Z,1.67
2023-04-03T03:17:59.147Z,1.97
2023-04-03T03:20:46.947Z,2.10
2023-04-03T03:23:34.331Z,1.90
2023-04-03T03:26:21.887Z,1.87
2023-04-03T03:29:08.880Z,1.90
2023-04-03T03:31:56.118Z,1.97
2023-04-03T03:34:43.158Z,2.27
2023-04-03T03:37:30.465Z,1.97
2023-04-03T03:40:18.092Z,2.00
2023-04-03T03:43:05.514Z,1.47
2023-04-03T03:45:53.548Z,1.93
2023-04-03T03:48:40.830Z,1.80
2023-04-03T03:51:27.861Z,2.00
2023-04-03T03:54:15.645Z,1.60
2023-04-03T03:57:02.816Z,2.10
2023-04-03T03:59:52.662Z,1.90
2023-04-03T04:02:40.489Z,1.80
2023-04-03T04:05:27.908Z,1.73
2023-04-03T04:08:15.350Z,2.03
2023-04-03T04:11:03.304Z,2.00
2023-04-03T04:13:50.617Z,1.90
2023-04-03T04:16:39.879Z,2.07
2023-04-03T04:19:34.095Z,1.77
2023-04-03T04:22:21.207Z,1.80
2023-04-03T04:25:08.738Z,2.00
2023-04-03T04:27:57.178Z,2.43
2023-04-03T04:30:44.579Z,1.73
2023-04-03T04:33:31.687Z,1.87
2023-04-03T04:36:21.405Z,1.80
2023-04-03T04:39:09.516Z,1.77
2023-04-03T04:41:56.713Z,1.80
2023-04-03T04:44:45.854Z,2.03
2023-04-03T04:47:34.578Z,2.03
2023-04-03T04:50:21.913Z,1.77
2023-04-03T04:53:10.328Z,1.73
2023-04-03T04:55:57.648Z,1.83
2023-04-03T04:58:44.726Z,2.10
2023-04-03T05:01:31.858Z,1.90
2023-04-03T05:04:27.909Z,2.27
2023-04-03T05:07:21.003Z,2.00
2023-04-03T05:10:09.320Z,2.03
2023-04-03T05:12:57.244Z,2.00
2023-04-03T05:15:44.388Z,2.30
2023-04-03T05:18:31.438Z,1.90
2023-04-03T05:21:24.153Z,2.10
2023-04-03T05:24:12.504Z,1.40
2023-04-03T05:27:02.031Z,1.80
2023-04-03T05:29:49.862Z,1.70
2023-04-03T05:32:41.869Z,2.00
2023-04-03T05:35:55.403Z,2.00
2023-04-03T05:38:47.300Z,2.10
2023-04-03T05:41:35.457Z,2.00
2023-04-03T05:44:22.831Z,2.10
2023-04-03T05:47:11.564Z,2.07
2023-04-03T05:49:58.709Z,1.93
2023-04-03T05:52:49.423Z,1.73
2023-04-03T05:55:37.235Z,2.00
2023-04-03T05:58:24.587Z,2.00
2023-04-03T06:01:13.003Z,1.97
2023-04-03T06:04:00.667Z,1.80
2023-04-03T06:06:58.580Z,2.20
2023-04-03T06:09:46.889Z,1.90
2023-04-03T06:12:34.750Z,2.00
2023-04-03T06:15:22.053Z,1.97
2023-04-03T06:18:09.276Z,2.20
2023-04-03T06:20:56.376Z,1.90
2023-04-03T06:23:43.512Z,2.37
2023-04-03T06:26:30.649Z,2.20
2023-04-03T06:29:18.319Z,1.80
2023-04-03T06:32:05.618Z,2.03
2023-04-03T06:34:54.270Z,2.03
2023-04-03T06:37:41.533Z,2.10
2023-04-03T06:40:28.563Z,1.83
2023-04-03T06:43:15.736Z,2.07
2023-04-03T06:46:03.396Z,2.30
2023-04-03T06:48:50.931Z,2.63
2023-04-03T06:51:38.019Z,2.20
2023-04-03T06:54:24.992Z,2.33
2023-04-03T06:57:11.972Z,2.20
2023-04-03T06:59:58.956Z,2.10
2023-04-03T07:02:46.449Z,2.27
2023-04-03T07:05:33.688Z,1.80
2023-04-03T07:08:20.812Z,2.00
2023-04-03T07:11:07.784Z,2.20
2023-04-03T07:13:55.035Z,2.40
2023-04-03T07:16:42.822Z,2.23
2023-04-03T07:19:30.061Z,2.10
2023-04-03T07:22:17.896Z,2.57
2023-04-03T07:25:07.830Z,2.43
2023-04-03T07:27:55.545Z,2.30
2023-04-03T07:30:47.235Z,2.43
2023-04-03T07:33:35.817Z,2.23
2023-04-03T07:36:23.736Z,2.90
2023-04-03T07:39:12.069Z,2.20
2023-04-03T07:41:59.567Z,2.43
2023-04-03T07:44:46.600Z,2.67
2023-04-03T07:47:33.690Z,2.67
2023-04-03T07:50:20.923Z,2.60
2023-04-03T07:53:08.752Z,2.10
2023-04-03T07:55:58.162Z,2.60
2023-04-03T07:58:45.137Z,2.00
2023-04-03T08:01:33.494Z,2.33
2023-04-03T08:04:20.796Z,2.03
2023-04-03T08:07:07.867Z,2.00
2023-04-03T08:09:54.822Z,2.20
2023-04-03T08:12:42.930Z,2.10
2023-04-03T08:15:31.609Z,2.00
2023-04-03T08:18:22.316Z,2.07
2023-04-03T08:21:12.226Z,2.00
2023-04-03T08:23:59.313Z,2.07
2023-04-03T08:26:46.424Z,1.80
2023-04-03T08:29:33.773Z,2.10
2023-04-03T08:32:21.767Z,1.83
2023-04-03T08:35:09.265Z,1.87
2023-04-03T08:37:57.355Z,1.97
2023-04-03T08:40:44.509Z,1.80
2023-04-03T08:43:56.323Z,1.90
2023-04-03T08:47:05.568Z,1.60
2023-04-03T08:50:02.448Z,1.90
2023-04-03T08:52:53.471Z,1.80
2023-04-03T08:55:44.927Z,2.17
2023-04-03T08:58:42.759Z,2.00
2023-04-03T09:01:38.453Z,2.03
2023-04-03T09:04:27.729Z,1.90
2023-04-03T09:07:23.707Z,2.20
2023-04-03T09:10:13.786Z,1.87
2023-04-03T09:13:06.664Z,1.73
2023-04-03T09:15:55.348Z,1.90
2023-04-03T09:18:48.222Z,1.90
2023-04-03T09:21:43.219Z,2.00
2023-04-03T09:24:32.375Z,1.60
2023-04-03T09:27:19.357Z,1.70
2023-04-03T09:30:07.979Z,1.97
2023-04-03T09:32:57.837Z,1.57
2023-04-03T09:35:48.585Z,1.37
2023-04-03T09:38:36.624Z,1.80
2023-04-03T09:41:24.771Z,1.40
2023-04-03T09:44:28.621Z,1.17
2023-04-03T09:47:31.669Z,1.60
2023-04-03T09:50:22.926Z,1.57
2023-04-03T09:53:28.482Z,1.50
2023-04-03T09:56:18.128Z,1.50
2023-04-03T09:59:05.024Z,1.60
2023-04-03T10:02:04.947Z,1.23
2023-04-03T10:05:02.373Z,1.70
2023-04-03T10:08:28.027Z,1.40
2023-04-03T10:11:19.632Z,1.50
2023-04-03T10:14:17.776Z,1.00
2023-04-03T10:17:45.029Z,0.97
2023-04-03T10:20:48.108Z,1.03
2023-04-03T10:23:45.179Z,1.10
2023-04-03T10:26:47.068Z,1.20
2023-04-03T10:29:43.680Z,1.20
2023-04-03T10:32:45.177Z,1.33
2023-04-03T10:35:43.199Z,1.40
2023-04-03T10:39:00.830Z,0.93
2023-04-03T10:42:17.086Z,1.20
2023-04-03T10:45:23.560Z,1.00
2023-04-03T10:48:27.772Z,1.20
2023-04-03T10:51:30.786Z,1.10
2023-04-03T10:54:23.468Z,0.70
2023-04-03T10:57:13.862Z,1.20
2023-04-03T11:00:10.150Z,0.80
2023-04-03T11:02:59.505Z,1.00
2023-04-03T11:05:50.589Z,0.90
2023-04-03T11:08:47.333Z,1.10
2023-04-03T11:11:40.789Z,1.27
2023-04-03T11:14:37.186Z,1.10
2023-04-03T11:17:45.168Z,0.80
2023-04-03T11:20:35.028Z,1.10
2023-04-03T11:23:38.622Z,1.20
2023-04-03T11:26:39.872Z,0.90
2023-04-03T11:29:35.703Z,0.80
2023-04-03T11:32:43.144Z,0.90
2023-04-03T11:35:31.362Z,0.97
2023-04-03T11:38:27.634Z,1.07
2023-04-03T11:41:15.594Z,0.83
2023-04-03T11:44:26.091Z,0.90
2023-04-03T11:47:49.621Z,1.00
2023-04-03T11:50:41.869Z,0.90
2023-04-03T11:53:38.036Z,1.00
2023-04-03T11:56:24.978Z,1.17
2023-04-03T11:59:12.558Z,0.60
2023-04-03T12:01:59.644Z,0.87
2023-04-03T12:05:27.106Z,1.00
2023-04-03T12:08:40.305Z,1.00
2023-04-03T12:11:31.970Z,0.90
2023-04-03T12:14:20.091Z,0.73
2023-04-03T12:17:23.389Z,1.23
2023-04-03T12:20:53.336Z,0.87
2023-04-03T12:24:03.880Z,0.90
2023-04-03T12:27:05.697Z,1.10
2023-04-03T12:29:55.317Z,0.87
2023-04-03T12:33:11.895Z,1.00
2023-04-03T12:36:27.799Z,1.10
2023-04-03T12:39:40.527Z,1.20
2023-04-03T12:42:42.287Z,0.93
2023-04-03T12:45:29.987Z,1.00
2023-04-03T12:48:22.602Z,1.00
2023-04-03T12:51:09.648Z,1.10
2023-04-03T12:54:03.282Z,1.33
2023-04-03T12:56:51.494Z,1.10
2023-04-03T12:59:39.193Z,1.20
2023-04-03T13:02:29.863Z,1.30
2023-04-03T13:05:19.853Z,1.47
2023-04-03T13:08:12.475Z,1.40
2023-04-03T13:11:01.944Z,1.27
2023-04-03T13:14:06.792Z,1.03
2023-04-03T13:16:55.892Z,1.30
2023-04-03T13:19:44.273Z,1.10
2023-04-03T13:22:40.053Z,1.40
2023-04-03T13:25:30.491Z,1.20
2023-04-03T13:28:24.504Z,1.50
2023-04-03T13:31:18.896Z,2.43
2023-04-03T13:34:13.328Z,1.50
2023-04-03T13:37:02.352Z,1.10
2023-04-03T13:40:28.019Z,1.00
2023-04-03T13:43:24.141Z,1.57
2023-04-03T13:46:11.165Z,1.30
2023-04-03T13:48:58.373Z,1.60
2023-04-03T13:51:47.785Z,1.20
2023-04-03T13:54:39.199Z,1.30
2023-04-03T13:57:27.252Z,1.10
2023-04-03T14:00:30.413Z,1.40
2023-04-03T14:03:25.158Z,1.27
2023-04-03T14:06:15.426Z,2.33
2023-04-03T14:09:02.578Z,1.70
2023-04-03T14:11:53.317Z,1.50
2023-04-03T14:14:41.181Z,1.40
2023-04-03T14:17:28.786Z,1.40
2023-04-03T14:20:22.982Z,1.47
2023-04-03T14:23:13.299Z,1.50
2023-04-03T14:26:01.331Z,1.47
2023-04-03T14:28:50.775Z,1.20
2023-04-03T14:31:37.870Z,1.30
2023-04-03T14:34:25.010Z,1.13
2023-04-03T14:37:21.151Z,1.10
2023-04-03T14:40:13.182Z,1.80
2023-04-03T14:43:00.439Z,1.67
2023-04-03T14:45:48.913Z,1.40
2023-04-03T14:48:36.003Z,1.53
2023-04-03T14:51:23.349Z,1.10
2023-04-03T14:54:20.375Z,1.30
2023-04-03T14:57:13.994Z,1.20
2023-04-03T15:00:02.330Z,1.17
2023-04-03T15:02:50.194Z,2.03
2023-04-03T15:05:38.507Z,1.93
2023-04-03T15:08:28.130Z,2.30
2023-04-03T15:11:15.843Z,2.20
2023-04-03T15:14:02.772Z,1.60
2023-04-03T15:16:49.863Z,1.70
2023-04-03T15:19:39.086Z,1.30
2023-04-03T15:22:26.085Z,1.30
2023-04-03T15:25:13.678Z,1.53
2023-04-03T15:28:00.848Z,1.70
2023-04-03T15:30:47.899Z,1.50
2023-04-03T15:33:36.688Z,1.40
2023-04-03T15:39:17.348Z,2.03
2023-04-03T15:42:07.206Z,1.37
2023-04-03T15:44:54.409Z,1.40
2023-04-03T15:47:42.512Z,1.60
2023-04-03T15:50:29.645Z,1.30
2023-04-03T15:53:16.790Z,1.47
2023-04-03T15:56:05.580Z,1.43
2023-04-03T15:58:52.542Z,1.23
2023-04-03T16:01:40.040Z,1.07
2023-04-03T16:04:27.404Z,1.33
2023-04-03T16:07:14.383Z,1.27
2023-04-03T16:10:01.392Z,1.90
2023-04-03T16:12:48.358Z,1.60
2023-04-03T16:15:36.200Z,1.50
2023-04-03T16:18:23.406Z,1.37
2023-04-03T16:21:10.743Z,1.67
2023-04-03T16:24:01.408Z,1.30
2023-04-03T16:26:48.372Z,1.13
2023-04-03T16:29:35.371Z,1.27
2023-04-03T16:32:23.275Z,1.07
2023-04-03T16:35:11.912Z,1.13
2023-04-03T16:37:58.994Z,1.17
2023-04-03T16:40:46.782Z,1.30
2023-04-03T16:43:34.689Z,1.60
2023-04-03T16:46:21.767Z,1.33
2023-04-03T16:49:08.910Z,1.20
2023-04-03T16:51:55.919Z,1.37
2023-04-03T16:54:42.925Z,1.30
2023-04-03T16:57:29.948Z,1.63
2023-04-03T17:00:17.337Z,2.00
2023-04-03T17:03:04.702Z,1.60
2023-04-03T17:05:51.750Z,1.47
2023-04-03T17:08:38.761Z,1.37
2023-04-03T17:11:26.625Z,1.90
2023-04-03T17:14:13.586Z,1.60
2023-04-03T17:17:00.783Z,1.70
2023-04-03T17:19:48.027Z,1.33
2023-04-03T17:22:35.764Z,1.60
2023-04-03T17:25:22.778Z,1.30
2023-04-03T17:28:09.739Z,1.63
2023-04-03T17:31:01.224Z,1.70
2023-04-03T17:33:48.209Z,1.37
2023-04-03T17:36:35.264Z,1.53
2023-04-03T17:39:22.235Z,1.50
2023-04-03T17:42:09.430Z,1.20
2023-04-03T17:44:56.441Z,1.30
2023-04-03T17:47:43.536Z,1.30
2023-04-03T17:50:30.844Z,1.53
2023-04-03T17:53:18.055Z,1.73
2023-04-03T17:56:09.900Z,2.20
2023-04-03T17:58:58.348Z,2.37
2023-04-03T18:01:47.516Z,1.90
2023-04-03T18:04:34.568Z,1.60
2023-04-03T18:07:21.713Z,1.80
2023-04-03T18:10:09.049Z,1.80
2023-04-03T18:12:56.833Z,1.70
2023-04-03T18:15:45.782Z,1.53
2023-04-03T18:18:32.930Z,1.50
2023-04-03T18:21:19.983Z,2.03
2023-04-03T18:24:12.654Z,2.10
2023-04-03T18:27:10.021Z,1.80
2023-04-03T18:30:02.618Z,2.00
2023-04-03T18:32:50.147Z,2.60
2023-04-03T18:35:37.164Z,2.10
2023-04-03T18:38:24.272Z,4.60
2023-04-03T18:41:11.735Z,5.23
2023-04-03T18:44:01.760Z,3.47
2023-04-03T18:46:48.808Z,6.83
2023-04-03T18:49:39.431Z,5.67
2023-04-03T18:52:26.425Z,2.50
2023-04-03T18:55:15.580Z,2.00
2023-04-03T18:58:02.665Z,1.90
2023-04-03T19:00:49.755Z,1.70
2023-04-03T19:03:37.930Z,1.63
2023-04-03T19:06:25.182Z,1.20
2023-04-03T19:09:12.125Z,1.60
2023-04-03T19:11:59.094Z,1.40
2023-04-03T19:14:46.130Z,1.40
2023-04-03T19:17:33.156Z,1.63
2023-04-03T19:20:20.260Z,1.70
2023-04-03T19:23:08.679Z,1.30
2023-04-03T19:26:05.250Z,1.40
2023-04-03T19:28:52.754Z,1.10
2023-04-03T19:31:40.205Z,1.50
2023-04-03T19:34:27.322Z,1.60
2023-04-03T19:37:14.926Z,1.27
2023-04-03T19:40:02.092Z,1.33
2023-04-03T19:42:49.196Z,1.20
2023-04-03T19:45:36.574Z,1.10
2023-04-03T19:48:24.550Z,1.40
2023-04-03T19:51:11.515Z,1.60
2023-04-03T19:53:58.484Z,2.10
2023-04-03T19:56:45.681Z,1.87
2023-04-03T19:59:32.892Z,1.70
2023-04-03T20:02:21.361Z,1.60
2023-04-03T20:05:09.099Z,1.60
2023-04-03T20:07:56.131Z,1.77
2023-04-03T20:10:43.331Z,1.63
2023-04-03T20:13:30.365Z,1.47
2023-04-03T20:16:18.203Z,1.23
2023-04-03T20:19:06.494Z,1.57
2023-04-03T20:21:54.031Z,1.43
2023-04-03T20:24:42.673Z,1.40
2023-04-03T20:27:30.300Z,1.40
2023-04-03T20:30:17.334Z,1.50
2023-04-03T20:33:05.066Z,1.23
2023-04-03T20:35:53.532Z,1.30
2023-04-03T20:38:40.558Z,1.47
2023-04-03T20:41:27.651Z,1.37
2023-04-03T20:44:17.608Z,1.40
2023-04-03T20:47:04.951Z,1.20
2023-04-03T20:49:53.562Z,1.40
2023-04-03T20:52:40.818Z,1.43
2023-04-03T20:55:28.355Z,1.50
2023-04-03T20:58:15.320Z,1.50
2023-04-03T21:01:02.494Z,1.10
2023-04-03T21:03:51.289Z,1.40
2023-04-03T21:07:16.111Z,1.30
2023-04-03T21:10:40.771Z,1.33
2023-04-03T21:14:05.476Z,1.20
2023-04-03T21:16:52.385Z,1.23
2023-04-03T21:19:45.848Z,1.50
2023-04-03T21:22:32.899Z,1.60
2023-04-03T21:25:19.895Z,1.60
2023-04-03T21:28:07.198Z,1.60
2023-04-03T21:30:54.199Z,1.57
2023-04-03T21:33:42.317Z,1.20
2023-04-03T21:36:39.980Z,1.50
2023-04-03T21:39:27.186Z,1.50
2023-04-03T21:42:14.116Z,1.30
2023-04-03T21:45:01.285Z,1.67
2023-04-03T21:47:48.541Z,1.40
2023-04-03T21:50:37.028Z,1.47
2023-04-03T21:53:24.141Z,1.63
2023-04-03T21:56:11.260Z,1.50
2023-04-03T21:59:01.286Z,1.57
2023-04-03T22:01:48.394Z,1.37
2023-04-03T22:04:35.370Z,1.50
2023-04-03T22:07:22.343Z,1.63
2023-04-03T22:10:09.456Z,1.77
2023-04-03T22:12:56.443Z,1.50
2023-04-03T22:15:47.418Z,1.63
2023-04-03T22:18:34.840Z,1.40
2023-04-03T22:21:22.407Z,1.57
2023-04-03T22:24:09.468Z,1.30
2023-04-03T22:26:56.695Z,1.70
2023-04-03T22:29:43.627Z,1.70
2023-04-03T22:32:30.595Z,1.50
2023-04-03T22:35:17.581Z,1.60
2023-04-03T22:38:04.505Z,1.60
2023-04-03T22:41:02.786Z,1.60
2023-04-03T22:43:49.713Z,1.60
2023-04-03T22:46:36.826Z,1.53
2023-04-03T22:49:24.139Z,1.80
2023-04-03T22:52:11.189Z,1.40
2023-04-03T22:55:03.584Z,1.67
2023-04-03T22:58:00.392Z,1.37
2023-04-03T23:00:47.370Z,1.33
2023-04-03T23:03:35.356Z,1.67
2023-04-03T23:06:22.496Z,1.80
2023-04-03T23:09:09.625Z,1.90
2023-04-03T23:11:56.996Z,1.70
2023-04-03T23:14:43.934Z,1.40
2023-04-03T23:17:31.026Z,1.90
2023-04-03T23:20:18.120Z,1.80
2023-04-03T23:23:05.882Z,1.67
2023-04-03T23:25:59.019Z,1.50
2023-04-03T23:28:46.228Z,1.70
2023-04-03T23:31:33.412Z,1.80
2023-04-03T23:34:20.378Z,1.60
2023-04-03T23:37:08.715Z,1.60
2023-04-03T23:39:56.015Z,1.57
2023-04-03T23:42:43.210Z,1.60
2023-04-03T23:45:30.153Z,1.67
2023-04-03T23:48:17.431Z,1.77
2023-04-03T23:51:04.661Z,1.47
2023-04-03T23:53:51.664Z,1.70
2023-04-03T23:56:38.620Z,1.80
2023-04-03T23:59:26.219Z,1.30
